Accueil
Images satellite Prévisions 15 joursClimatMétéo marine Cyclones Foudre AéroportsFAQ Actualités A propos
Météo : Europe Afrique Amérique du Nord Amérique du Sud Asie Australie-Océanie Autres
Langues Contact

Bergerac, France

Roumanière

latitude: 44-49N, longitude: 000-31E, altitude: 51 m


METAR: LFBE 020800Z AUTO VRB01KT 9999 NSC 14/13 Q1027
TAF: LFBE 020726Z 0207/0215 02004KT 7000 BKN003 BECMG 0207/0209 CAVOK

Heure: 10:22 (08:22 UTC)

Observation

Le bulletin a été fait il y a 22 minutes, à 08:00 UTC  
Vent 01 kt de direction variable
Température 14°C
Humidité 94%
Pression 1027 hPa
Visibilité 10 km ou plus

Changer d'unités

Prévision

Le bulletin a été fait il y a 56 minutes, à 07:26 UTC  
Prévision valable du 02 à 07 UTC au 02 à 15 UTC
Vent 04 kt de nord/nord-est
Visibilité 7000 m
Nuages fragmentés à une hauteur de 300 ft
Evoluant progressivement
du 02 à 07 UTC au 02 à 09 UTC
Visibilité 10 km ou plus
pas de nuages en-dessous de 1500 mètres et pas de cumulonimbus.
Les informations qui figurent sur ce site font l'objet d'une clause de non-responsabilité
Météo : Europe Afrique Amérique du Nord Amérique du Sud Asie Australie-Océanie Autres
Images satellite Prévisions 15 joursClimatMétéo marine Cyclones Foudre AéroportsFAQ Langues Contact Actualités A propos